sensor_id;sensor_type;location;lat;lon;timestamp;temperature;humidity
17599;DHT22;8918;52.092;5.232;2022-07-12T00:01:17;17.20;99.90
17599;DHT22;8918;52.092;5.232;2022-07-12T00:03:43;17.20;99.90
17599;DHT22;8918;52.092;5.232;2022-07-12T00:06:08;17.20;99.90
17599;DHT22;8918;52.092;5.232;2022-07-12T00:08:34;17.20;99.90
17599;DHT22;8918;52.092;5.232;2022-07-12T00:10:59;17.20;99.90
17599;DHT22;8918;52.092;5.232;2022-07-12T00:13:25;17.20;99.90
17599;DHT22;8918;52.092;5.232;2022-07-12T00:15:50;17.10;99.90
17599;DHT22;8918;52.092;5.232;2022-07-12T00:18:16;17.10;99.90
17599;DHT22;8918;52.092;5.232;2022-07-12T00:20:41;17.10;99.90
17599;DHT22;8918;52.092;5.232;2022-07-12T00:23:07;17.10;99.90
17599;DHT22;8918;52.092;5.232;2022-07-12T00:25:32;17.00;99.90
17599;DHT22;8918;52.092;5.232;2022-07-12T00:27:58;17.00;99.90
17599;DHT22;8918;52.092;5.232;2022-07-12T00:30:23;16.90;99.90
17599;DHT22;8918;52.092;5.232;2022-07-12T00:32:49;16.90;99.90
17599;DHT22;8918;52.092;5.232;2022-07-12T00:35:15;16.90;99.90
17599;DHT22;8918;52.092;5.232;2022-07-12T00:37:41;16.80;99.90
17599;DHT22;8918;52.092;5.232;2022-07-12T00:40:09;16.80;99.90
17599;DHT22;8918;52.092;5.232;2022-07-12T00:42:39;16.80;99.90
17599;DHT22;8918;52.092;5.232;2022-07-12T00:45:05;16.80;99.90
17599;DHT22;8918;52.092;5.232;2022-07-12T00:47:37;16.70;99.90
17599;DHT22;8918;52.092;5.232;2022-07-12T00:50:12;16.70;99.90
17599;DHT22;8918;52.092;5.232;2022-07-12T00:52:38;16.70;99.90
17599;DHT22;8918;52.092;5.232;2022-07-12T00:55:05;16.60;99.90
17599;DHT22;8918;52.092;5.232;2022-07-12T00:57:32;16.60;99.90
17599;DHT22;8918;52.092;5.232;2022-07-12T00:59:59;16.50;99.90
17599;DHT22;8918;52.092;5.232;2022-07-12T01:02:25;16.40;99.90
17599;DHT22;8918;52.092;5.232;2022-07-12T01:04:51;16.40;99.90
17599;DHT22;8918;52.092;5.232;2022-07-12T01:07:18;16.40;99.90
17599;DHT22;8918;52.092;5.232;2022-07-12T01:09:44;16.30;99.90
17599;DHT22;8918;52.092;5.232;2022-07-12T01:12:10;16.30;99.90
17599;DHT22;8918;52.092;5.232;2022-07-12T01:14:37;16.20;99.90
17599;DHT22;8918;52.092;5.232;2022-07-12T01:17:03;16.20;99.90
17599;DHT22;8918;52.092;5.232;2022-07-12T01:19:29;16.10;99.90
17599;DHT22;8918;52.092;5.232;2022-07-12T01:21:56;16.10;99.90
17599;DHT22;8918;52.092;5.232;2022-07-12T01:24:22;16.00;99.90
17599;DHT22;8918;52.092;5.232;2022-07-12T01:26:50;16.00;99.90
17599;DHT22;8918;52.092;5.232;2022-07-12T01:29:16;16.00;99.90
17599;DHT22;8918;52.092;5.232;2022-07-12T01:31:43;16.00;99.90
17599;DHT22;8918;52.092;5.232;2022-07-12T01:34:09;15.90;99.90
17599;DHT22;8918;52.092;5.232;2022-07-12T01:36:34;15.90;99.90
17599;DHT22;8918;52.092;5.232;2022-07-12T01:39:03;15.90;99.90
17599;DHT22;8918;52.092;5.232;2022-07-12T01:41:28;15.90;99.90
17599;DHT22;8918;52.092;5.232;2022-07-12T01:43:54;15.90;99.90
17599;DHT22;8918;52.092;5.232;2022-07-12T01:46:20;15.80;99.90
17599;DHT22;8918;52.092;5.232;2022-07-12T01:48:45;15.80;99.90
17599;DHT22;8918;52.092;5.232;2022-07-12T01:51:11;15.80;99.90
17599;DHT22;8918;52.092;5.232;2022-07-12T01:53:37;15.80;99.90
17599;DHT22;8918;52.092;5.232;2022-07-12T01:56:03;15.80;99.90
17599;DHT22;8918;52.092;5.232;2022-07-12T01:58:29;15.70;99.90
17599;DHT22;8918;52.092;5.232;2022-07-12T02:00:56;15.70;99.90
17599;DHT22;8918;52.092;5.232;2022-07-12T02:03:23;15.60;99.90
17599;DHT22;8918;52.092;5.232;2022-07-12T02:05:48;15.60;99.90
17599;DHT22;8918;52.092;5.232;2022-07-12T02:08:14;15.60;99.90
17599;DHT22;8918;52.092;5.232;2022-07-12T02:10:41;15.60;99.90
17599;DHT22;8918;52.092;5.232;2022-07-12T02:13:06;15.60;99.90
17599;DHT22;8918;52.092;5.232;2022-07-12T02:15:32;15.60;99.90
17599;DHT22;8918;52.092;5.232;2022-07-12T02:17:58;15.60;99.90
17599;DHT22;8918;52.092;5.232;2022-07-12T02:20:24;15.60;99.90
17599;DHT22;8918;52.092;5.232;2022-07-12T02:22:50;15.60;99.90
17599;DHT22;8918;52.092;5.232;2022-07-12T02:25:15;15.60;99.90
17599;DHT22;8918;52.092;5.232;2022-07-12T02:27:41;15.60;99.90
17599;DHT22;8918;52.092;5.232;2022-07-12T02:30:08;15.60;99.90
17599;DHT22;8918;52.092;5.232;2022-07-12T02:32:34;15.60;99.90
17599;DHT22;8918;52.092;5.232;2022-07-12T02:34:59;15.60;99.90
17599;DHT22;8918;52.092;5.232;2022-07-12T02:37:25;15.60;99.90
17599;DHT22;8918;52.092;5.232;2022-07-12T02:39:51;15.50;99.90
17599;DHT22;8918;52.092;5.232;2022-07-12T02:42:17;15.50;99.90
17599;DHT22;8918;52.092;5.232;2022-07-12T02:44:42;15.50;99.90
17599;DHT22;8918;52.092;5.232;2022-07-12T02:47:08;15.50;99.90
17599;DHT22;8918;52.092;5.232;2022-07-12T02:49:34;15.50;99.90
17599;DHT22;8918;52.092;5.232;2022-07-12T02:51:59;15.40;99.90
17599;DHT22;8918;52.092;5.232;2022-07-12T02:54:25;15.30;99.90
17599;DHT22;8918;52.092;5.232;2022-07-12T02:56:50;15.30;99.90
17599;DHT22;8918;52.092;5.232;2022-07-12T02:59:16;15.30;99.90
17599;DHT22;8918;52.092;5.232;2022-07-12T03:01:41;15.20;99.90
17599;DHT22;8918;52.092;5.232;2022-07-12T03:04:07;15.20;99.90
17599;DHT22;8918;52.092;5.232;2022-07-12T03:06:33;15.20;99.90
17599;DHT22;8918;52.092;5.232;2022-07-12T03:08:58;15.20;99.90
17599;DHT22;8918;52.092;5.232;2022-07-12T03:11:26;15.20;99.90
17599;DHT22;8918;52.092;5.232;2022-07-12T03:13:52;15.10;99.90
17599;DHT22;8918;52.092;5.232;2022-07-12T03:16:17;15.10;99.90
17599;DHT22;8918;52.092;5.232;2022-07-12T03:18:43;15.10;99.90
17599;DHT22;8918;52.092;5.232;2022-07-12T03:21:09;15.10;99.90
17599;DHT22;8918;52.092;5.232;2022-07-12T03:23:35;15.10;99.90
17599;DHT22;8918;52.092;5.232;2022-07-12T03:26:01;15.20;99.90
17599;DHT22;8918;52.092;5.232;2022-07-12T03:28:27;15.10;99.90
17599;DHT22;8918;52.092;5.232;2022-07-12T03:30:52;15.10;99.90
17599;DHT22;8918;52.092;5.232;2022-07-12T03:33:18;15.10;99.90
17599;DHT22;8918;52.092;5.232;2022-07-12T03:35:43;15.10;99.90
17599;DHT22;8918;52.092;5.232;2022-07-12T03:38:09;15.10;99.90
17599;DHT22;8918;52.092;5.232;2022-07-12T03:40:34;15.10;99.90
17599;DHT22;8918;52.092;5.232;2022-07-12T03:43:00;15.00;99.90
17599;DHT22;8918;52.092;5.232;2022-07-12T03:45:25;15.00;99.90
17599;DHT22;8918;52.092;5.232;2022-07-12T03:47:51;15.00;99.90
17599;DHT22;8918;52.092;5.232;2022-07-12T03:50:17;15.00;99.90
17599;DHT22;8918;52.092;5.232;2022-07-12T03:52:43;14.90;99.90
17599;DHT22;8918;52.092;5.232;2022-07-12T03:55:10;14.90;99.90
17599;DHT22;8918;52.092;5.232;2022-07-12T03:57:36;14.90;99.90
17599;DHT22;8918;52.092;5.232;2022-07-12T04:00:07;14.90;99.90
17599;DHT22;8918;52.092;5.232;2022-07-12T04:02:40;14.90;99.90
17599;DHT22;8918;52.092;5.232;2022-07-12T04:05:06;14.80;99.90
17599;DHT22;8918;52.092;5.232;2022-07-12T04:07:32;14.80;99.90
17599;DHT22;8918;52.092;5.232;2022-07-12T04:09:58;14.80;99.90
17599;DHT22;8918;52.092;5.232;2022-07-12T04:12:24;14.80;99.90
17599;DHT22;8918;52.092;5.232;2022-07-12T04:14:50;14.80;99.90
17599;DHT22;8918;52.092;5.232;2022-07-12T04:17:15;14.80;99.90
17599;DHT22;8918;52.092;5.232;2022-07-12T04:19:41;14.80;99.90
17599;DHT22;8918;52.092;5.232;2022-07-12T04:22:06;14.80;99.90
17599;DHT22;8918;52.092;5.232;2022-07-12T04:24:32;14.80;99.90
17599;DHT22;8918;52.092;5.232;2022-07-12T04:26:58;14.70;99.90
17599;DHT22;8918;52.092;5.232;2022-07-12T04:29:24;14.80;99.90
17599;DHT22;8918;52.092;5.232;2022-07-12T04:31:49;14.80;99.90
17599;DHT22;8918;52.092;5.232;2022-07-12T04:34:15;14.80;99.90
17599;DHT22;8918;52.092;5.232;2022-07-12T04:36:45;14.90;99.90
17599;DHT22;8918;52.092;5.232;2022-07-12T04:39:11;14.90;99.90
17599;DHT22;8918;52.092;5.232;2022-07-12T04:41:37;14.90;99.90
17599;DHT22;8918;52.092;5.232;2022-07-12T04:44:04;15.00;99.90
17599;DHT22;8918;52.092;5.232;2022-07-12T04:46:29;15.10;99.90
17599;DHT22;8918;52.092;5.232;2022-07-12T04:48:55;15.10;99.90
17599;DHT22;8918;52.092;5.232;2022-07-12T04:51:20;15.20;99.90
17599;DHT22;8918;52.092;5.232;2022-07-12T04:53:46;15.20;99.90
17599;DHT22;8918;52.092;5.232;2022-07-12T04:56:11;15.20;99.90
17599;DHT22;8918;52.092;5.232;2022-07-12T04:58:37;15.30;99.90
17599;DHT22;8918;52.092;5.232;2022-07-12T05:01:03;15.40;99.90
17599;DHT22;8918;52.092;5.232;2022-07-12T05:03:28;15.50;99.90
17599;DHT22;8918;52.092;5.232;2022-07-12T05:05:55;15.50;99.90
17599;DHT22;8918;52.092;5.232;2022-07-12T05:08:21;15.60;99.90
17599;DHT22;8918;52.092;5.232;2022-07-12T05:10:47;15.70;99.90
17599;DHT22;8918;52.092;5.232;2022-07-12T05:13:13;15.80;99.90
17599;DHT22;8918;52.092;5.232;2022-07-12T05:15:39;15.90;99.90
17599;DHT22;8918;52.092;5.232;2022-07-12T05:18:04;15.90;99.90
17599;DHT22;8918;52.092;5.232;2022-07-12T05:20:30;16.10;99.90
17599;DHT22;8918;52.092;5.232;2022-07-12T05:22:56;16.10;99.90
17599;DHT22;8918;52.092;5.232;2022-07-12T05:25:21;16.20;99.90
17599;DHT22;8918;52.092;5.232;2022-07-12T05:27:47;16.30;99.90
17599;DHT22;8918;52.092;5.232;2022-07-12T05:30:12;16.30;99.90
17599;DHT22;8918;52.092;5.232;2022-07-12T05:32:38;16.40;99.90
17599;DHT22;8918;52.092;5.232;2022-07-12T05:35:03;16.40;99.90
17599;DHT22;8918;52.092;5.232;2022-07-12T05:37:29;16.50;99.90
17599;DHT22;8918;52.092;5.232;2022-07-12T05:39:55;16.60;99.90
17599;DHT22;8918;52.092;5.232;2022-07-12T05:42:20;16.60;99.90
17599;DHT22;8918;52.092;5.232;2022-07-12T05:44:46;16.70;99.90
17599;DHT22;8918;52.092;5.232;2022-07-12T05:47:12;16.80;99.90
17599;DHT22;8918;52.092;5.232;2022-07-12T05:49:38;16.80;99.90
17599;DHT22;8918;52.092;5.232;2022-07-12T05:52:04;16.90;99.90
17599;DHT22;8918;52.092;5.232;2022-07-12T05:54:48;17.00;99.90
17599;DHT22;8918;52.092;5.232;2022-07-12T05:57:17;17.00;99.90
17599;DHT22;8918;52.092;5.232;2022-07-12T05:59:43;17.10;99.90
17599;DHT22;8918;52.092;5.232;2022-07-12T06:02:09;17.10;99.90
17599;DHT22;8918;52.092;5.232;2022-07-12T06:04:35;17.20;99.90
17599;DHT22;8918;52.092;5.232;2022-07-12T06:07:00;17.20;99.90
17599;DHT22;8918;52.092;5.232;2022-07-12T06:09:26;17.30;99.90
17599;DHT22;8918;52.092;5.232;2022-07-12T06:11:51;17.30;99.90
17599;DHT22;8918;52.092;5.232;2022-07-12T06:14:17;17.40;99.90
17599;DHT22;8918;52.092;5.232;2022-07-12T06:16:43;17.50;99.90
17599;DHT22;8918;52.092;5.232;2022-07-12T06:19:08;17.60;99.90
17599;DHT22;8918;52.092;5.232;2022-07-12T06:21:34;17.70;99.90
17599;DHT22;8918;52.092;5.232;2022-07-12T06:24:00;17.70;99.90
17599;DHT22;8918;52.092;5.232;2022-07-12T06:26:25;17.80;99.90
17599;DHT22;8918;52.092;5.232;2022-07-12T06:28:51;17.90;99.90
17599;DHT22;8918;52.092;5.232;2022-07-12T06:31:16;18.00;99.90
17599;DHT22;8918;52.092;5.232;2022-07-12T06:33:42;18.10;99.90
17599;DHT22;8918;52.092;5.232;2022-07-12T06:36:08;18.20;99.90
17599;DHT22;8918;52.092;5.232;2022-07-12T06:38:33;18.20;99.90
17599;DHT22;8918;52.092;5.232;2022-07-12T06:40:59;18.30;99.90
17599;DHT22;8918;52.092;5.232;2022-07-12T06:43:24;18.40;99.90
17599;DHT22;8918;52.092;5.232;2022-07-12T06:45:50;18.40;99.90
17599;DHT22;8918;52.092;5.232;2022-07-12T06:48:16;18.50;99.90
17599;DHT22;8918;52.092;5.232;2022-07-12T06:50:41;18.50;99.90
17599;DHT22;8918;52.092;5.232;2022-07-12T06:53:07;18.60;99.90
17599;DHT22;8918;52.092;5.232;2022-07-12T06:55:33;18.60;99.90
17599;DHT22;8918;52.092;5.232;2022-07-12T06:57:59;18.70;99.90
17599;DHT22;8918;52.092;5.232;2022-07-12T07:00:24;18.70;99.90
17599;DHT22;8918;52.092;5.232;2022-07-12T07:02:50;18.70;99.90
17599;DHT22;8918;52.092;5.232;2022-07-12T07:05:15;18.70;99.90
17599;DHT22;8918;52.092;5.232;2022-07-12T07:07:43;18.80;99.90
17599;DHT22;8918;52.092;5.232;2022-07-12T07:10:08;18.80;99.90
17599;DHT22;8918;52.092;5.232;2022-07-12T07:12:34;18.90;99.90
17599;DHT22;8918;52.092;5.232;2022-07-12T07:14:59;18.90;99.90
17599;DHT22;8918;52.092;5.232;2022-07-12T07:17:25;18.90;99.90
17599;DHT22;8918;52.092;5.232;2022-07-12T07:19:51;19.00;99.90
17599;DHT22;8918;52.092;5.232;2022-07-12T07:22:17;19.00;99.90
17599;DHT22;8918;52.092;5.232;2022-07-12T07:24:43;19.10;99.90
17599;DHT22;8918;52.092;5.232;2022-07-12T07:27:09;19.20;99.90
17599;DHT22;8918;52.092;5.232;2022-07-12T07:29:35;19.20;99.90
17599;DHT22;8918;52.092;5.232;2022-07-12T07:32:19;19.30;99.90
17599;DHT22;8918;52.092;5.232;2022-07-12T07:34:45;19.40;99.90
17599;DHT22;8918;52.092;5.232;2022-07-12T07:37:10;19.40;99.90
17599;DHT22;8918;52.092;5.232;2022-07-12T07:39:36;19.50;99.90
17599;DHT22;8918;52.092;5.232;2022-07-12T07:42:02;19.50;99.90
17599;DHT22;8918;52.092;5.232;2022-07-12T07:44:28;19.60;99.90
17599;DHT22;8918;52.092;5.232;2022-07-12T07:46:53;19.70;99.90
17599;DHT22;8918;52.092;5.232;2022-07-12T07:49:19;19.80;99.90
17599;DHT22;8918;52.092;5.232;2022-07-12T07:51:44;19.90;99.90
17599;DHT22;8918;52.092;5.232;2022-07-12T07:54:10;20.00;99.90
17599;DHT22;8918;52.092;5.232;2022-07-12T07:56:35;20.00;99.90
17599;DHT22;8918;52.092;5.232;2022-07-12T07:59:01;20.10;99.90
17599;DHT22;8918;52.092;5.232;2022-07-12T08:01:26;20.10;99.90
17599;DHT22;8918;52.092;5.232;2022-07-12T08:04:21;20.20;99.90
17599;DHT22;8918;52.092;5.232;2022-07-12T08:06:48;20.30;99.90
17599;DHT22;8918;52.092;5.232;2022-07-12T08:09:14;20.40;99.90
17599;DHT22;8918;52.092;5.232;2022-07-12T08:11:41;20.40;99.90
17599;DHT22;8918;52.092;5.232;2022-07-12T08:14:07;20.50;99.90
17599;DHT22;8918;52.092;5.232;2022-07-12T08:16:33;20.60;99.90
17599;DHT22;8918;52.092;5.232;2022-07-12T08:18:59;20.60;99.90
17599;DHT22;8918;52.092;5.232;2022-07-12T08:21:25;20.60;99.90
17599;DHT22;8918;52.092;5.232;2022-07-12T08:23:51;20.60;99.90
17599;DHT22;8918;52.092;5.232;2022-07-12T08:26:17;20.70;99.90
17599;DHT22;8918;52.092;5.232;2022-07-12T08:28:42;20.70;99.90
17599;DHT22;8918;52.092;5.232;2022-07-12T08:31:08;20.70;99.90
17599;DHT22;8918;52.092;5.232;2022-07-12T08:33:34;20.70;99.90
17599;DHT22;8918;52.092;5.232;2022-07-12T08:35:59;20.80;99.90
17599;DHT22;8918;52.092;5.232;2022-07-12T08:38:25;20.80;99.90
17599;DHT22;8918;52.092;5.232;2022-07-12T08:40:51;20.80;99.90
17599;DHT22;8918;52.092;5.232;2022-07-12T08:43:17;20.90;99.90
17599;DHT22;8918;52.092;5.232;2022-07-12T08:45:43;21.00;99.90
17599;DHT22;8918;52.092;5.232;2022-07-12T08:48:08;21.20;99.90
17599;DHT22;8918;52.092;5.232;2022-07-12T08:50:34;21.30;99.90
17599;DHT22;8918;52.092;5.232;2022-07-12T08:53:00;21.40;99.90
17599;DHT22;8918;52.092;5.232;2022-07-12T08:55:34;21.50;99.90
17599;DHT22;8918;52.092;5.232;2022-07-12T08:58:04;21.60;99.90
17599;DHT22;8918;52.092;5.232;2022-07-12T09:00:33;21.70;99.90
17599;DHT22;8918;52.092;5.232;2022-07-12T09:03:01;21.80;99.90
17599;DHT22;8918;52.092;5.232;2022-07-12T09:05:29;21.90;99.90
17599;DHT22;8918;52.092;5.232;2022-07-12T09:08:08;22.00;99.90
17599;DHT22;8918;52.092;5.232;2022-07-12T09:10:50;22.10;99.90
17599;DHT22;8918;52.092;5.232;2022-07-12T09:13:17;22.20;99.90
17599;DHT22;8918;52.092;5.232;2022-07-12T09:15:43;22.30;99.90
17599;DHT22;8918;52.092;5.232;2022-07-12T09:18:08;22.40;99.90
17599;DHT22;8918;52.092;5.232;2022-07-12T09:20:51;22.40;99.90
17599;DHT22;8918;52.092;5.232;2022-07-12T09:23:17;22.60;99.90
17599;DHT22;8918;52.092;5.232;2022-07-12T09:25:47;22.70;99.90
17599;DHT22;8918;52.092;5.232;2022-07-12T09:28:14;22.70;99.90
17599;DHT22;8918;52.092;5.232;2022-07-12T09:30:50;22.90;99.90
17599;DHT22;8918;52.092;5.232;2022-07-12T09:33:19;23.00;99.90
17599;DHT22;8918;52.092;5.232;2022-07-12T09:36:05;23.10;99.90
17599;DHT22;8918;52.092;5.232;2022-07-12T09:41:17;23.30;99.90
17599;DHT22;8918;52.092;5.232;2022-07-12T09:43:44;23.40;99.90
17599;DHT22;8918;52.092;5.232;2022-07-12T09:46:10;23.40;99.90
17599;DHT22;8918;52.092;5.232;2022-07-12T09:48:37;23.50;99.90
17599;DHT22;8918;52.092;5.232;2022-07-12T09:51:03;23.50;99.90
17599;DHT22;8918;52.092;5.232;2022-07-12T09:53:31;23.60;99.90
17599;DHT22;8918;52.092;5.232;2022-07-12T09:56:03;23.80;99.90
17599;DHT22;8918;52.092;5.232;2022-07-12T09:58:31;23.90;99.90
17599;DHT22;8918;52.092;5.232;2022-07-12T10:01:00;24.00;99.90
17599;DHT22;8918;52.092;5.232;2022-07-12T10:03:29;24.00;99.90
17599;DHT22;8918;52.092;5.232;2022-07-12T10:06:00;24.00;99.90
17599;DHT22;8918;52.092;5.232;2022-07-12T10:08:26;24.00;99.90
17599;DHT22;8918;52.092;5.232;2022-07-12T10:10:52;24.10;99.90
17599;DHT22;8918;52.092;5.232;2022-07-12T10:13:19;24.30;99.90
17599;DHT22;8918;52.092;5.232;2022-07-12T10:15:46;24.50;99.90
17599;DHT22;8918;52.092;5.232;2022-07-12T10:18:20;24.60;99.90
17599;DHT22;8918;52.092;5.232;2022-07-12T10:20:48;24.60;99.90
17599;DHT22;8918;52.092;5.232;2022-07-12T10:25:46;24.60;99.90
17599;DHT22;8918;52.092;5.232;2022-07-12T10:28:14;24.70;99.90
17599;DHT22;8918;52.092;5.232;2022-07-12T10:30:42;24.90;99.90
17599;DHT22;8918;52.092;5.232;2022-07-12T10:33:21;25.00;99.90
17599;DHT22;8918;52.092;5.232;2022-07-12T10:35:59;25.10;99.90
17599;DHT22;8918;52.092;5.232;2022-07-12T10:38:25;25.10;99.90
17599;DHT22;8918;52.092;5.232;2022-07-12T10:40:52;25.10;99.90
17599;DHT22;8918;52.092;5.232;2022-07-12T10:43:20;25.20;99.90
17599;DHT22;8918;52.092;5.232;2022-07-12T10:45:47;25.30;99.90
17599;DHT22;8918;52.092;5.232;2022-07-12T10:58:50;24.90;99.90
17599;DHT22;8918;52.092;5.232;2022-07-12T11:01:25;24.90;99.90
17599;DHT22;8918;52.092;5.232;2022-07-12T11:03:56;24.90;99.90
17599;DHT22;8918;52.092;5.232;2022-07-12T11:06:28;24.90;99.90
17599;DHT22;8918;52.092;5.232;2022-07-12T11:09:01;24.90;99.90
17599;DHT22;8918;52.092;5.232;2022-07-12T11:11:30;25.00;99.90
17599;DHT22;8918;52.092;5.232;2022-07-12T11:13:58;25.10;99.90
17599;DHT22;8918;52.092;5.232;2022-07-12T11:16:25;25.30;99.90
17599;DHT22;8918;52.092;5.232;2022-07-12T11:18:53;25.50;99.90
17599;DHT22;8918;52.092;5.232;2022-07-12T11:21:19;25.70;99.90
17599;DHT22;8918;52.092;5.232;2022-07-12T11:23:45;25.80;99.90
17599;DHT22;8918;52.092;5.232;2022-07-12T11:26:12;25.90;99.90
17599;DHT22;8918;52.092;5.232;2022-07-12T11:28:39;26.10;99.90
17599;DHT22;8918;52.092;5.232;2022-07-12T11:31:15;26.20;99.90
17599;DHT22;8918;52.092;5.232;2022-07-12T11:33:43;26.10;99.90
17599;DHT22;8918;52.092;5.232;2022-07-12T11:36:10;26.10;99.90
17599;DHT22;8918;52.092;5.232;2022-07-12T11:38:38;26.20;99.90
17599;DHT22;8918;52.092;5.232;2022-07-12T11:41:06;26.20;99.90
17599;DHT22;8918;52.092;5.232;2022-07-12T11:43:33;26.30;99.90
17599;DHT22;8918;52.092;5.232;2022-07-12T11:45:59;26.50;99.90
17599;DHT22;8918;52.092;5.232;2022-07-12T11:48:26;26.50;99.90
17599;DHT22;8918;52.092;5.232;2022-07-12T11:50:53;26.50;99.90
17599;DHT22;8918;52.092;5.232;2022-07-12T11:53:21;26.70;99.90
17599;DHT22;8918;52.092;5.232;2022-07-12T11:55:49;26.70;99.90
17599;DHT22;8918;52.092;5.232;2022-07-12T11:58:16;26.80;99.90
17599;DHT22;8918;52.092;5.232;2022-07-12T12:00:43;26.80;99.90
17599;DHT22;8918;52.092;5.232;2022-07-12T12:03:10;26.80;99.90
17599;DHT22;8918;52.092;5.232;2022-07-12T12:05:36;26.80;99.90
17599;DHT22;8918;52.092;5.232;2022-07-12T12:08:06;26.90;99.90
17599;DHT22;8918;52.092;5.232;2022-07-12T12:10:32;27.00;99.90
17599;DHT22;8918;52.092;5.232;2022-07-12T12:13:00;27.00;99.90
17599;DHT22;8918;52.092;5.232;2022-07-12T12:15:35;27.20;99.90
17599;DHT22;8918;52.092;5.232;2022-07-12T12:18:03;27.30;99.90
17599;DHT22;8918;52.092;5.232;2022-07-12T12:20:56;27.30;99.90
17599;DHT22;8918;52.092;5.232;2022-07-12T12:23:19;27.30;99.90
17599;DHT22;8918;52.092;5.232;2022-07-12T12:25:45;27.40;99.90
17599;DHT22;8918;52.092;5.232;2022-07-12T12:28:11;27.40;99.90
17599;DHT22;8918;52.092;5.232;2022-07-12T12:30:52;27.40;99.90
17599;DHT22;8918;52.092;5.232;2022-07-12T12:33:44;27.40;99.90
17599;DHT22;8918;52.092;5.232;2022-07-12T12:36:26;27.50;99.90
17599;DHT22;8918;52.092;5.232;2022-07-12T12:38:57;27.50;99.90
17599;DHT22;8918;52.092;5.232;2022-07-12T12:41:24;27.60;99.90
17599;DHT22;8918;52.092;5.232;2022-07-12T12:44:05;27.60;99.90
17599;DHT22;8918;52.092;5.232;2022-07-12T12:46:53;27.70;99.90
17599;DHT22;8918;52.092;5.232;2022-07-12T12:49:48;27.80;99.90
17599;DHT22;8918;52.092;5.232;2022-07-12T12:52:17;27.90;99.90
17599;DHT22;8918;52.092;5.232;2022-07-12T12:54:43;27.80;99.90
17599;DHT22;8918;52.092;5.232;2022-07-12T12:57:10;27.90;99.90
17599;DHT22;8918;52.092;5.232;2022-07-12T12:59:37;27.90;99.90
17599;DHT22;8918;52.092;5.232;2022-07-12T13:02:03;27.90;99.90
17599;DHT22;8918;52.092;5.232;2022-07-12T13:04:31;27.90;99.90
17599;DHT22;8918;52.092;5.232;2022-07-12T13:06:57;27.90;99.90
17599;DHT22;8918;52.092;5.232;2022-07-12T13:09:23;27.90;99.90
17599;DHT22;8918;52.092;5.232;2022-07-12T13:11:49;27.80;99.90
17599;DHT22;8918;52.092;5.232;2022-07-12T13:14:15;27.70;99.90
17599;DHT22;8918;52.092;5.232;2022-07-12T13:16:41;27.60;99.90
17599;DHT22;8918;52.092;5.232;2022-07-12T13:19:07;27.50;99.90
17599;DHT22;8918;52.092;5.232;2022-07-12T13:21:35;27.50;99.90
17599;DHT22;8918;52.092;5.232;2022-07-12T13:24:01;27.40;99.90
17599;DHT22;8918;52.092;5.232;2022-07-12T13:26:27;27.30;99.90
17599;DHT22;8918;52.092;5.232;2022-07-12T13:28:56;27.30;99.90
17599;DHT22;8918;52.092;5.232;2022-07-12T13:31:21;27.20;99.90
17599;DHT22;8918;52.092;5.232;2022-07-12T13:33:47;27.20;99.90
17599;DHT22;8918;52.092;5.232;2022-07-12T13:36:13;27.20;99.90
17599;DHT22;8918;52.092;5.232;2022-07-12T13:38:39;27.10;99.90
17599;DHT22;8918;52.092;5.232;2022-07-12T13:41:05;27.10;99.90
17599;DHT22;8918;52.092;5.232;2022-07-12T13:43:33;27.10;99.90
17599;DHT22;8918;52.092;5.232;2022-07-12T13:45:59;27.10;99.90
17599;DHT22;8918;52.092;5.232;2022-07-12T13:48:25;27.10;99.90
17599;DHT22;8918;52.092;5.232;2022-07-12T13:50:50;27.00;99.90
17599;DHT22;8918;52.092;5.232;2022-07-12T13:53:16;27.00;99.90
17599;DHT22;8918;52.092;5.232;2022-07-12T13:55:43;27.00;99.90
17599;DHT22;8918;52.092;5.232;2022-07-12T13:58:09;27.00;99.90
17599;DHT22;8918;52.092;5.232;2022-07-12T14:00:35;27.00;99.90
17599;DHT22;8918;52.092;5.232;2022-07-12T14:03:01;27.00;99.90
17599;DHT22;8918;52.092;5.232;2022-07-12T14:05:26;27.00;99.90
17599;DHT22;8918;52.092;5.232;2022-07-12T14:07:52;27.00;99.90
17599;DHT22;8918;52.092;5.232;2022-07-12T14:10:19;27.00;99.90
17599;DHT22;8918;52.092;5.232;2022-07-12T14:12:45;27.00;99.90
17599;DHT22;8918;52.092;5.232;2022-07-12T14:15:11;26.90;99.90
17599;DHT22;8918;52.092;5.232;2022-07-12T14:17:45;26.90;99.90
17599;DHT22;8918;52.092;5.232;2022-07-12T14:20:12;26.80;99.90
17599;DHT22;8918;52.092;5.232;2022-07-12T14:22:39;26.80;99.90
17599;DHT22;8918;52.092;5.232;2022-07-12T14:25:06;26.80;99.90
17599;DHT22;8918;52.092;5.232;2022-07-12T14:27:37;26.80;99.90
17599;DHT22;8918;52.092;5.232;2022-07-12T14:30:04;26.80;99.90
17599;DHT22;8918;52.092;5.232;2022-07-12T14:32:31;26.80;99.90
17599;DHT22;8918;52.092;5.232;2022-07-12T14:34:57;26.70;99.90
17599;DHT22;8918;52.092;5.232;2022-07-12T14:37:22;26.70;99.90
17599;DHT22;8918;52.092;5.232;2022-07-12T14:39:48;26.70;99.90
17599;DHT22;8918;52.092;5.232;2022-07-12T14:42:14;26.70;99.90
17599;DHT22;8918;52.092;5.232;2022-07-12T14:44:40;26.60;99.90
17599;DHT22;8918;52.092;5.232;2022-07-12T14:47:06;26.70;99.90
17599;DHT22;8918;52.092;5.232;2022-07-12T14:49:31;26.70;99.90
17599;DHT22;8918;52.092;5.232;2022-07-12T14:51:57;26.70;99.90
17599;DHT22;8918;52.092;5.232;2022-07-12T14:54:23;26.70;99.90
17599;DHT22;8918;52.092;5.232;2022-07-12T14:56:48;26.70;99.90
17599;DHT22;8918;52.092;5.232;2022-07-12T14:59:14;26.70;99.90
17599;DHT22;8918;52.092;5.232;2022-07-12T15:01:40;26.70;99.90
17599;DHT22;8918;52.092;5.232;2022-07-12T15:04:05;26.60;99.90
17599;DHT22;8918;52.092;5.232;2022-07-12T15:06:31;26.50;99.90
17599;DHT22;8918;52.092;5.232;2022-07-12T15:08:57;26.50;99.90
17599;DHT22;8918;52.092;5.232;2022-07-12T15:11:22;26.50;99.90
17599;DHT22;8918;52.092;5.232;2022-07-12T15:13:48;26.40;99.90
17599;DHT22;8918;52.092;5.232;2022-07-12T15:16:14;26.40;99.90
17599;DHT22;8918;52.092;5.232;2022-07-12T15:18:40;26.40;99.90
17599;DHT22;8918;52.092;5.232;2022-07-12T15:21:06;26.40;99.90
17599;DHT22;8918;52.092;5.232;2022-07-12T15:23:32;26.40;99.90
17599;DHT22;8918;52.092;5.232;2022-07-12T15:25:58;26.40;99.90
17599;DHT22;8918;52.092;5.232;2022-07-12T15:28:27;26.50;99.90
17599;DHT22;8918;52.092;5.232;2022-07-12T15:30:54;26.50;99.90
17599;DHT22;8918;52.092;5.232;2022-07-12T15:33:20;26.50;99.90
17599;DHT22;8918;52.092;5.232;2022-07-12T15:35:46;26.50;99.90
17599;DHT22;8918;52.092;5.232;2022-07-12T15:38:11;26.50;99.90
17599;DHT22;8918;52.092;5.232;2022-07-12T15:40:37;26.50;99.90
17599;DHT22;8918;52.092;5.232;2022-07-12T15:43:04;26.50;99.90
17599;DHT22;8918;52.092;5.232;2022-07-12T15:45:30;26.40;99.90
17599;DHT22;8918;52.092;5.232;2022-07-12T15:47:56;26.40;99.90
17599;DHT22;8918;52.092;5.232;2022-07-12T15:50:21;26.30;99.90
17599;DHT22;8918;52.092;5.232;2022-07-12T15:52:47;26.20;99.90
17599;DHT22;8918;52.092;5.232;2022-07-12T15:55:31;26.20;99.90
17599;DHT22;8918;52.092;5.232;2022-07-12T15:57:58;26.10;99.90
17599;DHT22;8918;52.092;5.232;2022-07-12T16:00:24;26.20;99.90